Time;durP1;ratioP1;P1;durP2;ratioP2;P2;SDS_P1;SDS_P2;PMS_P1;PMS_P2;Temp;Humidity;BMP_temperature;BMP_pressure;BME280_temperature;BME280_humidity;BME280_pressure;Samples;Min_cycle;Max_cycle;Signal;HPM_P1;HPM_P2
2022/11/12 00:00:57;;;;;;;62.10;11.07;;;7.30;99.90;;;;;;4873586;29;20068;-78
2022/11/12 00:03:24;;;;;;;41.53;9.43;;;7.30;99.90;;;;;;4870413;29;20057;-79
2022/11/12 00:05:52;;;;;;;62.35;9.68;;;7.30;99.90;;;;;;4869499;29;20049;-80
2022/11/12 00:08:19;;;;;;;59.92;9.40;;;7.30;99.90;;;;;;4873630;29;20052;-79
2022/11/12 00:10:46;;;;;;;24.27;8.45;;;7.30;99.90;;;;;;4869946;29;20057;-79
2022/11/12 00:13:12;;;;;;;16.58;7.43;;;7.30;99.90;;;;;;4879479;29;20048;-79
2022/11/12 00:15:39;;;;;;;18.35;7.63;;;7.40;99.90;;;;;;4876809;29;20073;-80
2022/11/12 00:18:06;;;;;;;9.02;6.20;;;7.40;99.90;;;;;;4873603;29;20057;-77
2022/11/12 00:20:33;;;;;;;10.45;6.53;;;7.30;99.90;;;;;;4869571;29;20053;-79
2022/11/12 00:23:00;;;;;;;6.82;6.10;;;7.30;99.90;;;;;;4868138;29;20075;-78
2022/11/12 00:25:27;;;;;;;12.40;6.75;;;7.30;99.90;;;;;;4873430;29;20056;-79
2022/11/12 00:27:59;;;;;;;11.90;5.97;;;7.40;99.90;;;;;;4876712;29;20143;-78
2022/11/12 00:30:26;;;;;;;23.42;6.38;;;7.40;99.90;;;;;;4870438;29;20062;-78
2022/11/12 00:32:52;;;;;;;12.68;6.60;;;7.40;99.90;;;;;;4869923;29;20066;-79
2022/11/12 00:35:19;;;;;;;12.85;7.32;;;7.50;99.90;;;;;;4874219;29;20053;-80
2022/11/12 00:37:45;;;;;;;24.90;8.25;;;7.50;99.90;;;;;;4870533;29;20058;-78
2022/11/12 00:40:12;;;;;;;29.00;8.25;;;7.50;99.90;;;;;;4873636;29;20045;-78
2022/11/12 00:42:39;;;;;;;32.53;9.65;;;7.50;99.90;;;;;;4877066;29;20053;-80
2022/11/12 00:45:06;;;;;;;74.28;11.77;;;7.50;99.90;;;;;;4873941;29;20053;-79
2022/11/12 00:47:33;;;;;;;50.42;11.30;;;7.60;99.90;;;;;;4870610;29;20053;-78
2022/11/12 00:49:59;;;;;;;63.67;13.15;;;7.60;99.90;;;;;;4873156;29;20073;-78
2022/11/12 00:52:26;;;;;;;70.90;14.13;;;7.60;99.90;;;;;;4870024;29;20053;-78
2022/11/12 00:54:52;;;;;;;61.20;14.50;;;7.50;99.90;;;;;;4873832;29;20459;-82
2022/11/12 00:57:19;;;;;;;44.83;14.55;;;7.50;99.90;;;;;;4869920;29;20226;-81
2022/11/12 00:59:46;;;;;;;76.13;16.58;;;7.50;99.90;;;;;;4881664;29;20088;-82
2022/11/12 01:02:12;;;;;;;36.47;14.60;;;7.50;99.90;;;;;;4871604;29;20424;-78
2022/11/12 01:04:39;;;;;;;55.60;15.23;;;7.60;99.90;;;;;;4870422;29;20431;-80
2022/11/12 01:07:06;;;;;;;65.03;16.35;;;7.50;99.90;;;;;;4870122;29;20056;-79
2022/11/12 01:09:32;;;;;;;52.60;14.02;;;7.60;99.90;;;;;;4865014;29;20110;-82
2022/11/12 01:11:59;;;;;;;63.45;15.15;;;7.50;99.90;;;;;;4870962;29;20061;-79
2022/11/12 01:14:26;;;;;;;41.40;15.05;;;7.50;99.90;;;;;;4869667;29;20049;-81
2022/11/12 01:16:52;;;;;;;43.47;13.25;;;7.50;99.90;;;;;;4861709;29;20534;-81
2022/11/12 01:19:19;;;;;;;66.30;16.90;;;7.50;99.90;;;;;;4871751;29;20050;-80
2022/11/12 01:21:46;;;;;;;53.78;16.05;;;7.50;99.90;;;;;;4863191;29;20065;-78
2022/11/12 01:24:12;;;;;;;58.85;15.82;;;7.60;99.90;;;;;;4861241;29;20053;-79
2022/11/12 01:26:39;;;;;;;54.05;14.25;;;7.60;99.90;;;;;;4869539;29;20534;-79
2022/11/12 01:29:06;;;;;;;39.72;13.90;;;7.60;99.90;;;;;;4869688;29;20541;-78
2022/11/12 01:31:37;;;;;;;40.88;14.50;;;7.60;99.90;;;;;;4867402;29;20057;-81
2022/11/12 01:34:06;;;;;;;36.63;13.63;;;7.60;99.90;;;;;;4877140;29;20530;-82
2022/11/12 01:36:36;;;;;;;42.00;13.87;;;7.60;99.90;;;;;;4877701;29;20507;-81
2022/11/12 01:39:04;;;;;;;31.05;13.02;;;7.60;99.90;;;;;;4875634;29;20058;-79
2022/11/12 01:41:34;;;;;;;50.72;14.68;;;7.60;99.90;;;;;;4883633;29;20057;-80
2022/11/12 01:44:15;;;;;;;37.88;12.45;;;7.50;99.90;;;;;;4874318;29;20574;-80
2022/11/12 01:46:54;;;;;;;29.38;13.32;;;7.50;99.90;;;;;;4874223;29;20053;-82
2022/11/12 01:49:42;;;;;;;49.50;14.93;;;7.50;99.90;;;;;;4889259;29;20053;-81
2022/11/12 01:52:23;;;;;;;33.70;11.43;;;7.50;99.90;;;;;;4877386;29;20059;-81
2022/11/12 01:54:53;;;;;;;30.27;11.90;;;7.40;99.90;;;;;;4882007;29;20063;-81
2022/11/12 01:57:26;;;;;;;;;;;7.40;99.90;;;;;;4876428;29;20061;-79
2022/11/12 02:00:04;;;;;;;19.03;11.07;;;7.40;99.90;;;;;;4875766;29;19924;-77
2022/11/12 02:02:32;;;;;;;35.25;10.48;;;7.30;99.90;;;;;;4875311;29;20057;-80
2022/11/12 02:05:00;;;;;;;22.08;9.93;;;7.30;99.90;;;;;;4880826;29;20080;-77
2022/11/12 02:07:28;;;;;;;14.40;9.30;;;7.30;99.90;;;;;;4882425;29;20053;-81
2022/11/12 02:09:55;;;;;;;17.90;9.68;;;7.30;99.90;;;;;;4874095;29;20049;-80
2022/11/12 02:15:07;;;;;;;22.02;10.88;;;7.30;99.90;;;;;;4876774;29;20053;-79
2022/11/12 02:17:34;;;;;;;21.17;11.15;;;7.20;99.90;;;;;;4879352;29;20061;-80
2022/11/12 02:20:01;;;;;;;39.70;11.98;;;7.20;99.90;;;;;;4876059;29;20049;-78
2022/11/12 02:22:28;;;;;;;34.30;11.00;;;7.20;99.90;;;;;;4872205;29;20069;-79
2022/11/12 02:24:55;;;;;;;41.97;10.02;;;7.20;99.90;;;;;;4875787;29;20404;-81
2022/11/12 02:27:22;;;;;;;32.90;11.20;;;7.20;99.90;;;;;;4876968;29;20416;-82
2022/11/12 02:29:49;;;;;;;25.98;8.70;;;7.20;99.90;;;;;;4876808;29;20049;-82
2022/11/12 02:32:16;;;;;;;28.10;9.68;;;7.20;99.90;;;;;;4866596;29;20058;-81
2022/11/12 02:34:42;;;;;;;33.75;11.30;;;7.30;99.90;;;;;;4872469;29;20521;-80
2022/11/12 02:37:09;;;;;;;28.60;10.52;;;7.20;99.90;;;;;;4875276;29;20053;-80
2022/11/12 02:39:36;;;;;;;29.25;12.70;;;7.20;99.90;;;;;;4872496;29;20061;-80
2022/11/12 02:42:03;;;;;;;27.63;11.10;;;7.20;99.90;;;;;;4876299;29;20060;-79
2022/11/12 02:44:30;;;;;;;22.20;9.95;;;7.20;99.90;;;;;;4870946;29;20064;-79
2022/11/12 02:46:56;;;;;;;23.65;10.35;;;7.30;99.90;;;;;;4875669;29;20059;-80
2022/11/12 02:49:23;;;;;;;21.15;10.13;;;7.30;99.90;;;;;;4878926;29;20057;-78
2022/11/12 02:51:50;;;;;;;26.35;10.10;;;7.20;99.90;;;;;;4875486;29;20053;-76
2022/11/12 02:54:16;;;;;;;20.60;9.18;;;7.20;99.90;;;;;;4871935;29;20424;-79
2022/11/12 02:56:43;;;;;;;29.55;9.55;;;7.20;99.90;;;;;;4875408;29;20060;-78
2022/11/12 02:59:10;;;;;;;18.25;8.30;;;7.20;99.90;;;;;;4872206;29;20053;-78
2022/11/12 03:01:36;;;;;;;20.38;8.95;;;7.20;99.90;;;;;;4889940;29;20135;-80
2022/11/12 03:04:03;;;;;;;19.25;8.52;;;7.20;99.90;;;;;;4871857;29;20064;-79
2022/11/12 03:06:30;;;;;;;17.63;8.95;;;7.20;99.90;;;;;;4876378;29;20445;-80
2022/11/12 03:08:56;;;;;;;21.55;8.32;;;7.10;99.90;;;;;;4875238;29;20049;-80
2022/11/12 03:11:23;;;;;;;16.13;7.75;;;7.10;99.90;;;;;;4872081;29;20079;-80
2022/11/12 03:13:49;;;;;;;41.95;9.38;;;7.10;99.90;;;;;;4874393;29;20052;-78
2022/11/12 03:16:16;;;;;;;24.85;9.07;;;7.10;99.90;;;;;;4871912;29;20056;-79
2022/11/12 03:18:43;;;;;;;25.25;8.48;;;7.00;99.90;;;;;;4874735;29;20055;-80
2022/11/12 03:21:09;;;;;;;37.72;9.07;;;7.00;99.90;;;;;;4871924;29;20049;-80
2022/11/12 03:23:36;;;;;;;25.60;9.23;;;7.00;99.90;;;;;;4872995;29;20053;-80
2022/11/12 03:26:04;;;;;;;22.02;8.15;;;7.00;99.90;;;;;;4871734;29;20046;-80
2022/11/12 03:28:30;;;;;;;24.40;7.85;;;7.00;99.90;;;;;;4881375;29;20053;-79
2022/11/12 03:30:58;;;;;;;27.48;7.32;;;7.00;99.90;;;;;;4872259;29;20060;-79
2022/11/12 03:33:25;;;;;;;22.92;7.10;;;6.90;99.90;;;;;;4874385;29;20052;-78
2022/11/12 03:35:52;;;;;;;26.60;6.85;;;6.90;99.90;;;;;;4871367;29;20117;-81
2022/11/12 03:38:19;;;;;;;17.33;6.30;;;6.90;99.90;;;;;;4874609;29;20049;-78
2022/11/12 03:40:45;;;;;;;10.98;6.28;;;6.80;99.90;;;;;;4871613;29;20053;-78
2022/11/12 03:43:12;;;;;;;10.95;5.97;;;6.80;99.90;;;;;;4880750;29;20122;-78
2022/11/12 03:45:39;;;;;;;8.50;5.85;;;6.90;99.90;;;;;;4877935;29;20056;-79
2022/11/12 03:48:05;;;;;;;8.32;5.43;;;6.90;99.90;;;;;;4874448;29;20050;-79
2022/11/12 03:50:32;;;;;;;6.82;4.63;;;6.90;99.90;;;;;;4870218;29;20052;-79
2022/11/12 03:52:59;;;;;;;7.25;4.80;;;6.90;99.90;;;;;;4873179;29;20511;-78
2022/11/12 03:55:27;;;;;;;9.80;5.25;;;6.90;99.90;;;;;;4871968;29;20053;-80
2022/11/12 03:57:55;;;;;;;11.60;5.35;;;6.90;99.90;;;;;;4874336;29;20052;-77
2022/11/12 04:00:24;;;;;;;8.80;4.72;;;6.90;99.90;;;;;;4870928;29;20064;-80
2022/11/12 04:02:50;;;;;;;7.88;5.43;;;6.90;99.90;;;;;;4863214;29;20061;-77
2022/11/12 04:10:59;;;;;;;9.57;5.47;;;7.00;99.90;;;;;;4867476;29;20053;-78
2022/11/12 04:13:28;;;;;;;13.48;5.40;;;7.00;99.90;;;;;;4872477;29;20070;-79
2022/11/12 04:21:49;;;;;;;16.85;6.55;;;7.00;99.90;;;;;;4872320;29;20066;-80
2022/11/12 04:27:23;;;;;;;26.67;6.10;;;7.00;99.90;;;;;;4870769;29;20526;-79
2022/11/12 04:32:37;;;;;;;13.50;5.95;;;6.90;99.90;;;;;;4873195;29;20075;-80
2022/11/12 04:35:06;;;;;;;27.27;7.07;;;7.00;99.90;;;;;;4876806;29;20060;-79
2022/11/12 04:37:43;;;;;;;11.52;6.18;;;7.00;99.90;;;;;;4872685;29;20059;-79
2022/11/12 04:45:50;;;;;;;21.67;7.20;;;6.90;99.90;;;;;;4872957;29;20053;-79
2022/11/12 04:48:17;;;;;;;18.65;7.65;;;6.90;99.90;;;;;;4877819;29;20057;-80
2022/11/12 04:50:48;;;;;;;12.05;7.72;;;6.90;99.90;;;;;;4873084;29;20064;-79
2022/11/12 04:53:14;;;;;;;19.70;7.50;;;7.00;99.90;;;;;;4869744;29;20073;-79
2022/11/12 04:55:41;;;;;;;14.45;6.13;;;7.00;99.90;;;;;;4887729;29;20135;-79
2022/11/12 04:58:08;;;;;;;12.93;7.07;;;7.00;99.90;;;;;;4870360;29;20054;-79
2022/11/12 05:00:34;;;;;;;42.72;8.40;;;7.00;99.90;;;;;;4873508;29;20053;-80
2022/11/12 05:03:01;;;;;;;78.25;9.20;;;7.00;99.90;;;;;;4875732;29;20061;-80
2022/11/12 05:05:28;;;;;;;57.10;8.70;;;6.90;99.90;;;;;;4873401;29;20079;-78
2022/11/12 05:08:00;;;;;;;94.10;10.40;;;6.80;99.90;;;;;;4874236;29;20059;-78
2022/11/12 05:10:27;;;;;;;60.00;9.43;;;6.70;99.90;;;;;;4883434;29;20053;-80
2022/11/12 05:12:54;;;;;;;76.88;10.07;;;6.70;99.90;;;;;;4888680;29;20056;-80
2022/11/12 05:15:21;;;;;;;73.43;10.32;;;6.70;99.90;;;;;;4877157;29;20143;-82
2022/11/12 05:17:48;;;;;;;117.68;9.75;;;6.70;99.90;;;;;;4874045;29;20054;-78
2022/11/12 05:20:16;;;;;;;117.78;10.48;;;6.70;99.90;;;;;;4876798;29;20139;-80
2022/11/12 05:22:42;;;;;;;91.18;9.60;;;6.70;99.90;;;;;;4874390;29;20056;-79
2022/11/12 05:25:29;;;;;;;54.80;8.90;;;6.70;99.90;;;;;;4873828;29;20113;-79
2022/11/12 05:27:55;;;;;;;66.57;10.07;;;6.70;99.90;;;;;;4872265;29;20055;-79
2022/11/12 05:30:22;;;;;;;92.57;10.38;;;6.70;99.90;;;;;;4890278;29;20055;-80
2022/11/12 05:32:49;;;;;;;68.80;10.18;;;6.70;99.90;;;;;;4879561;29;20397;-80
2022/11/12 05:35:15;;;;;;;75.90;10.43;;;6.70;99.90;;;;;;4881842;29;20514;-78
2022/11/12 05:37:42;;;;;;;91.95;11.07;;;6.80;99.90;;;;;;4879851;29;20060;-79
2022/11/12 05:40:09;;;;;;;74.70;9.75;;;6.80;99.90;;;;;;4875860;29;20085;-79
2022/11/12 05:42:36;;;;;;;77.15;10.00;;;6.80;99.90;;;;;;4873001;29;20057;-79
2022/11/12 05:45:03;;;;;;;71.90;10.50;;;6.70;99.90;;;;;;4874900;29;20063;-80
2022/11/12 05:47:30;;;;;;;61.17;9.32;;;6.70;99.90;;;;;;4873576;29;20053;-80
2022/11/12 05:49:56;;;;;;;61.22;8.88;;;6.70;99.90;;;;;;4875113;29;20060;-79
2022/11/12 05:52:23;;;;;;;87.63;8.95;;;6.60;99.90;;;;;;4872039;29;20452;-78
2022/11/12 05:54:50;;;;;;;124.70;10.48;;;6.60;99.90;;;;;;4873090;29;20061;-78
2022/11/12 05:57:16;;;;;;;80.57;9.75;;;6.60;99.90;;;;;;4874729;29;20061;-80
2022/11/12 05:59:43;;;;;;;66.35;9.65;;;6.60;99.90;;;;;;4873797;29;20061;-79
2022/11/12 06:02:10;;;;;;;52.50;8.60;;;6.60;99.90;;;;;;4875070;29;20551;-80
2022/11/12 06:04:36;;;;;;;90.50;10.95;;;6.50;99.90;;;;;;4873768;29;20100;-78
2022/11/12 06:07:03;;;;;;;62.83;9.25;;;6.50;99.90;;;;;;4875342;29;20057;-81
2022/11/12 06:09:30;;;;;;;73.88;10.48;;;6.50;99.90;;;;;;4874695;29;20136;-80
2022/11/12 06:11:56;;;;;;;75.72;11.52;;;6.40;99.90;;;;;;4889348;29;20084;-81
2022/11/12 06:14:23;;;;;;;54.15;10.73;;;6.40;99.90;;;;;;4879948;29;20057;-78
2022/11/12 06:16:50;;;;;;;67.93;11.10;;;6.40;99.90;;;;;;4889312;29;20045;-80
2022/11/12 06:19:16;;;;;;;62.08;9.98;;;6.40;99.90;;;;;;4879581;29;20267;-81
2022/11/12 06:21:43;;;;;;;56.28;9.85;;;6.50;99.90;;;;;;4873930;29;20049;-82
2022/11/12 06:24:10;;;;;;;59.53;10.75;;;6.40;99.90;;;;;;4873570;29;20056;-79
2022/11/12 06:26:37;;;;;;;82.70;11.43;;;6.50;99.90;;;;;;4875390;29;20046;-79
2022/11/12 06:29:03;;;;;;;77.72;10.48;;;6.50;99.90;;;;;;4873414;29;20049;-79
2022/11/12 06:31:30;;;;;;;83.65;11.00;;;6.50;99.90;;;;;;4875709;29;20046;-81
2022/11/12 06:33:57;;;;;;;105.65;10.32;;;6.50;99.90;;;;;;4879401;29;20059;-81
2022/11/12 06:36:23;;;;;;;83.82;8.80;;;6.50;99.90;;;;;;4874408;29;20447;-78
2022/11/12 06:38:50;;;;;;;68.05;8.63;;;6.50;99.90;;;;;;4872690;29;20079;-79
2022/11/12 06:41:17;;;;;;;91.38;8.40;;;6.50;99.90;;;;;;4873119;29;20057;-79
2022/11/12 06:43:43;;;;;;;111.63;9.50;;;6.50;99.90;;;;;;4872641;29;20063;-79
2022/11/12 06:46:13;;;;;;;33.70;7.03;;;6.50;99.90;;;;;;4873795;29;20049;-81
2022/11/12 06:48:40;;;;;;;73.38;13.82;;;6.60;99.90;;;;;;4872778;29;20055;-80
2022/11/12 06:51:10;;;;;;;97.30;13.02;;;6.60;99.90;;;;;;4873596;29;20061;-80
2022/11/12 06:53:37;;;;;;;80.53;11.50;;;6.60;99.90;;;;;;4878166;29;20053;-80
2022/11/12 06:56:05;;;;;;;65.00;9.13;;;6.70;99.90;;;;;;4874963;29;20057;-78
2022/11/12 06:58:32;;;;;;;59.33;8.07;;;6.70;99.90;;;;;;4871959;29;20059;-80
2022/11/12 07:01:08;;;;;;;41.42;8.75;;;6.70;99.90;;;;;;4881186;29;20507;-78
2022/11/12 07:03:38;;;;;;;54.45;9.43;;;6.80;99.90;;;;;;4872429;29;20452;-79
2022/11/12 07:06:08;;;;;;;36.30;7.55;;;6.80;99.90;;;;;;4880933;29;20061;-78
2022/11/12 07:08:34;;;;;;;51.47;7.60;;;6.80;99.90;;;;;;4872989;29;20049;-79
2022/11/12 07:11:02;;;;;;;63.42;8.10;;;6.80;99.90;;;;;;4874699;29;20242;-79
2022/11/12 07:13:30;;;;;;;78.43;7.55;;;6.80;99.90;;;;;;4872046;29;20049;-80
2022/11/12 07:15:59;;;;;;;84.55;7.63;;;6.70;99.90;;;;;;4873150;29;20123;-78
2022/11/12 07:18:26;;;;;;;76.93;7.40;;;6.80;99.90;;;;;;4873056;29;20056;-79
2022/11/12 07:20:58;;;;;;;69.45;9.57;;;6.80;99.90;;;;;;4875744;29;20134;-79
2022/11/12 07:23:26;;;;;;;62.53;7.80;;;6.70;99.90;;;;;;4875726;29;20056;-78
2022/11/12 07:26:23;;;;;;;41.28;7.03;;;6.80;99.90;;;;;;4874373;29;20148;-81
2022/11/12 07:28:51;;;;;;;48.75;7.15;;;6.80;99.90;;;;;;4874888;29;20052;-82
2022/11/12 07:31:19;;;;;;;66.07;8.27;;;6.80;99.90;;;;;;4873160;29;20049;-82
2022/11/12 07:33:47;;;;;;;36.15;7.97;;;6.80;99.90;;;;;;4875786;29;20057;-80
2022/11/12 07:36:19;;;;;;;20.40;8.10;;;6.90;99.90;;;;;;4879650;29;20053;-81
2022/11/12 07:38:46;;;;;;;33.35;7.63;;;6.90;99.90;;;;;;4873264;29;20589;-81
2022/11/12 07:41:21;;;;;;;41.60;7.90;;;7.00;99.90;;;;;;4873298;29;20061;-78
2022/11/12 07:43:50;;;;;;;47.08;7.50;;;7.00;99.90;;;;;;4873970;29;20059;-80
2022/11/12 07:46:23;;;;;;;42.60;7.97;;;7.00;99.90;;;;;;4874879;29;20405;-77
2022/11/12 07:48:50;;;;;;;43.72;7.97;;;7.00;99.90;;;;;;4874148;29;20049;-81
2022/11/12 07:51:25;;;;;;;44.70;7.82;;;7.00;99.90;;;;;;4874654;29;20381;-80
2022/11/12 07:53:54;;;;;;;49.53;7.53;;;7.00;99.90;;;;;;4873287;29;20049;-80
2022/11/12 07:56:26;;;;;;;33.90;6.93;;;7.00;99.90;;;;;;4872947;29;20049;-82
2022/11/12 07:58:53;;;;;;;44.65;7.35;;;7.00;99.90;;;;;;4875137;29;20126;-79
2022/11/12 08:01:29;;;;;;;43.97;7.05;;;6.90;99.90;;;;;;4872254;29;20061;-78
2022/11/12 08:03:57;;;;;;;54.67;7.93;;;6.90;99.90;;;;;;4879934;29;20060;-80
2022/11/12 08:06:25;;;;;;;54.38;8.20;;;6.90;99.90;;;;;;4873870;29;20053;-79
2022/11/12 08:08:53;;;;;;;41.30;8.90;;;6.90;99.90;;;;;;4873895;29;20060;-80
2022/11/12 08:11:19;;;;;;;29.42;7.97;;;6.90;99.90;;;;;;4874026;29;20053;-80
2022/11/12 08:13:46;;;;;;;32.13;7.72;;;6.90;99.90;;;;;;4879580;29;20061;-78
2022/11/12 08:16:13;;;;;;;43.28;8.27;;;6.90;99.90;;;;;;4873429;29;20515;-82
2022/11/12 08:18:42;;;;;;;38.55;7.45;;;6.80;99.90;;;;;;4874988;29;20427;-82
2022/11/12 08:21:12;;;;;;;43.38;7.50;;;6.80;99.90;;;;;;4872591;29;20080;-81
2022/11/12 08:23:39;;;;;;;54.40;8.80;;;6.80;99.90;;;;;;4874695;29;20436;-82
2022/11/12 08:26:09;;;;;;;35.40;7.60;;;6.80;99.90;;;;;;4874806;29;20065;-81
2022/11/12 08:28:36;;;;;;;46.33;8.35;;;6.80;99.90;;;;;;4876103;29;20139;-81
2022/11/12 08:31:09;;;;;;;63.35;7.45;;;6.80;99.90;;;;;;4877463;29;20060;-80
2022/11/12 08:33:36;;;;;;;50.95;8.25;;;6.70;99.90;;;;;;4884296;29;20527;-82
2022/11/12 08:36:04;;;;;;;34.17;8.60;;;6.80;99.90;;;;;;4883730;29;20170;-81
2022/11/12 08:38:31;;;;;;;36.20;8.10;;;6.80;99.90;;;;;;4885388;29;20061;-79
2022/11/12 08:41:05;;;;;;;37.55;8.00;;;6.90;99.90;;;;;;4886169;29;20064;-78
2022/11/12 08:43:33;;;;;;;45.90;9.00;;;6.90;99.90;;;;;;4886825;29;20057;-80
2022/11/12 08:46:00;;;;;;;49.78;9.52;;;7.00;99.90;;;;;;4897001;29;20404;-80
2022/11/12 08:48:29;;;;;;;57.92;9.73;;;7.10;99.90;;;;;;4889466;29;20053;-81
2022/11/12 08:50:56;;;;;;;26.92;7.40;;;7.10;99.90;;;;;;4875473;29;20555;-81
2022/11/12 08:53:24;;;;;;;42.60;9.27;;;7.20;99.90;;;;;;4877739;29;20056;-81
2022/11/12 08:55:55;;;;;;;33.20;8.77;;;7.10;99.90;;;;;;4878140;29;20164;-80
2022/11/12 08:58:23;;;;;;;28.35;8.82;;;7.10;99.90;;;;;;4875952;29;20506;-83
2022/11/12 09:00:51;;;;;;;59.20;10.02;;;7.20;99.90;;;;;;4893029;29;20053;-81
2022/11/12 09:03:21;;;;;;;59.67;10.18;;;7.20;99.90;;;;;;4883063;29;20063;-79
2022/11/12 09:05:48;;;;;;;64.88;12.85;;;7.20;99.90;;;;;;4885874;29;20049;-79
2022/11/12 09:08:18;;;;;;;63.70;13.85;;;7.10;99.90;;;;;;4876657;29;20056;-79
2022/11/12 09:10:46;;;;;;;47.45;12.07;;;7.20;99.90;;;;;;4879869;29;20053;-79
2022/11/12 09:13:13;;;;;;;55.40;10.63;;;7.20;99.90;;;;;;4875569;29;20053;-79
2022/11/12 09:15:40;;;;;;;42.30;11.48;;;7.20;99.90;;;;;;4876094;29;20049;-79
2022/11/12 09:18:11;;;;;;;31.52;11.75;;;7.30;99.90;;;;;;4879485;29;20121;-80
2022/11/12 09:20:37;;;;;;;61.78;14.10;;;7.30;99.90;;;;;;4876753;29;20482;-80
2022/11/12 09:23:07;;;;;;;57.40;13.05;;;7.40;99.90;;;;;;4876058;29;20060;-79
2022/11/12 09:25:35;;;;;;;52.58;14.93;;;7.40;99.90;;;;;;4875686;29;20058;-78
2022/11/12 09:28:13;;;;;;;57.40;15.25;;;7.50;99.90;;;;;;4876704;29;20049;-79
2022/11/12 09:30:44;;;;;;;37.95;12.13;;;7.60;99.90;;;;;;4876711;29;20053;-79
2022/11/12 09:33:14;;;;;;;;;;;7.70;99.90;;;;;;4878409;29;20060;-80
2022/11/12 09:35:41;;;;;;;38.80;11.32;;;7.80;99.90;;;;;;4876765;29;19931;-80
2022/11/12 09:38:08;;;;;;;34.55;11.95;;;7.80;99.90;;;;;;4880334;29;20065;-79
2022/11/12 09:40:50;;;;;;;45.42;12.00;;;7.90;99.90;;;;;;4877098;29;20065;-79
2022/11/12 09:43:31;;;;;;;54.45;13.77;;;8.00;99.90;;;;;;4877231;29;20494;-79
2022/11/12 09:46:17;;;;;;;25.75;12.73;;;8.00;99.90;;;;;;4883650;29;20080;-80
2022/11/12 09:49:15;;;;;;;27.27;12.57;;;8.00;99.90;;;;;;4879981;29;20543;-79
2022/11/12 09:51:51;;;;;;;29.73;12.85;;;8.10;99.90;;;;;;4882739;29;20074;-80
2022/11/12 09:54:22;;;;;;;24.33;13.30;;;8.20;99.90;;;;;;4882890;29;20057;-80
2022/11/12 09:56:49;;;;;;;37.03;13.00;;;8.30;99.90;;;;;;4871931;29;20049;-80
2022/11/12 09:59:16;;;;;;;26.67;13.00;;;8.30;99.90;;;;;;4870949;29;20057;-80
2022/11/12 10:01:58;;;;;;;29.52;12.00;;;8.30;99.90;;;;;;4869355;29;20423;-81
2022/11/12 10:04:28;;;;;;;27.80;10.52;;;8.30;99.90;;;;;;4873048;29;20053;-80
2022/11/12 10:07:33;;;;;;;54.65;12.82;;;8.30;99.90;;;;;;4882074;29;20061;-79
2022/11/12 10:10:03;;;;;;;24.05;11.15;;;8.30;99.90;;;;;;4871058;29;20049;-79
2022/11/12 10:12:43;;;;;;;38.05;12.63;;;8.30;99.90;;;;;;4878525;29;20049;-81
2022/11/12 10:18:32;;;;;;;19.67;11.80;;;8.50;99.90;;;;;;4882207;29;20136;-80
2022/11/12 10:21:10;;;;;;;24.15;11.52;;;8.50;99.90;;;;;;4882987;29;20049;-79
2022/11/12 10:23:46;;;;;;;48.05;12.85;;;8.50;99.90;;;;;;4890492;29;20049;-79
2022/11/12 10:26:18;;;;;;;21.70;12.98;;;8.50;99.90;;;;;;4875251;29;20059;-78
2022/11/12 10:29:07;;;;;;;21.60;12.05;;;8.50;99.90;;;;;;4878327;29;20050;-79
2022/11/12 10:31:34;;;;;;;25.23;12.48;;;8.60;99.90;;;;;;4890764;29;20049;-81
2022/11/12 10:34:12;;;;;;;23.00;11.43;;;8.60;99.90;;;;;;4870806;29;20045;-80
2022/11/12 10:36:47;;;;;;;20.63;11.02;;;8.60;99.90;;;;;;4870254;29;20507;-80
2022/11/12 10:39:46;;;;;;;18.30;11.57;;;8.60;99.90;;;;;;4871214;29;20069;-81
2022/11/12 10:42:18;;;;;;;20.40;10.93;;;8.70;99.90;;;;;;4872902;29;20057;-81
2022/11/12 10:44:45;;;;;;;19.23;11.18;;;8.70;99.90;;;;;;4885649;29;20064;-81
2022/11/12 10:47:31;;;;;;;15.85;10.05;;;8.70;99.90;;;;;;4881822;29;20066;-80
2022/11/12 10:50:17;;;;;;;30.17;11.43;;;8.80;99.90;;;;;;4885523;29;20071;-81
2022/11/12 10:52:55;;;;;;;18.80;11.00;;;8.90;99.90;;;;;;4882450;29;20049;-81
2022/11/12 10:55:25;;;;;;;23.88;12.18;;;8.90;99.90;;;;;;4878570;29;20128;-82
2022/11/12 10:58:19;;;;;;;19.73;12.35;;;9.00;99.90;;;;;;4882373;29;20050;-78
2022/11/12 11:01:02;;;;;;;19.80;12.20;;;9.00;99.90;;;;;;4879961;29;20053;-78
2022/11/12 11:03:43;;;;;;;23.33;12.68;;;8.90;99.90;;;;;;4877828;29;20072;-80
2022/11/12 11:06:15;;;;;;;30.55;12.85;;;8.90;99.90;;;;;;4881187;29;20049;-80
2022/11/12 11:08:44;;;;;;;35.85;11.68;;;9.00;99.90;;;;;;4879283;29;20053;-82
2022/11/12 11:11:23;;;;;;;19.27;11.52;;;8.90;99.90;;;;;;4881653;29;20052;-81
2022/11/12 11:13:52;;;;;;;18.63;11.35;;;9.00;99.90;;;;;;4882428;29;20046;-80
2022/11/12 11:16:23;;;;;;;16.40;11.10;;;9.10;99.90;;;;;;4878562;29;20056;-82
2022/11/12 11:18:56;;;;;;;17.00;11.82;;;9.10;99.90;;;;;;4878511;29;20056;-79
2022/11/12 11:21:34;;;;;;;19.83;11.80;;;9.20;99.90;;;;;;4880288;29;20048;-80
2022/11/12 11:24:32;;;;;;;18.73;12.48;;;9.30;99.90;;;;;;4877022;29;20061;-79
2022/11/12 11:27:33;;;;;;;23.73;13.25;;;9.30;99.90;;;;;;4875263;29;20058;-81
2022/11/12 11:30:08;;;;;;;18.92;12.68;;;9.30;99.90;;;;;;4877340;29;20045;-80
2022/11/12 11:32:53;;;;;;;20.30;12.93;;;9.40;99.90;;;;;;4878640;29;20049;-77
2022/11/12 11:35:37;;;;;;;21.95;13.73;;;9.40;99.90;;;;;;4875447;29;20510;-78
2022/11/12 11:38:29;;;;;;;22.45;13.57;;;9.40;99.90;;;;;;4882642;29;20124;-79
2022/11/12 11:41:28;;;;;;;23.80;12.93;;;9.40;99.90;;;;;;4875848;29;20057;-80
2022/11/12 11:44:06;;;;;;;21.70;12.40;;;9.40;99.90;;;;;;4884259;29;20134;-77
2022/11/12 11:47:01;;;;;;;21.05;13.25;;;9.40;99.90;;;;;;4876016;29;20849;-80
2022/11/12 11:49:37;;;;;;;20.27;13.27;;;9.40;99.90;;;;;;4874963;29;20069;-81
2022/11/12 11:52:31;;;;;;;20.27;13.68;;;9.40;99.90;;;;;;4877225;29;20444;-81
2022/11/12 11:55:08;;;;;;;24.65;14.88;;;9.40;99.90;;;;;;4875235;29;20077;-83
2022/11/12 11:57:45;;;;;;;27.63;15.82;;;9.40;99.90;;;;;;4881308;29;20077;-81
2022/11/12 12:00:19;;;;;;;30.67;18.90;;;9.40;99.90;;;;;;4886986;29;20064;-81
2022/11/12 12:02:46;;;;;;;26.52;16.27;;;9.50;99.90;;;;;;4875686;29;20079;-79
2022/11/12 12:05:46;;;;;;;26.08;16.27;;;9.30;99.90;;;;;;4874123;29;20057;-81
2022/11/12 12:08:35;;;;;;;24.92;16.02;;;9.40;99.90;;;;;;4876972;29;20526;-81
2022/11/12 12:11:06;;;;;;;24.92;15.68;;;9.40;99.90;;;;;;4872861;29;20053;-82
2022/11/12 12:14:05;;;;;;;26.50;15.88;;;9.50;99.90;;;;;;4875439;29;20419;-80
2022/11/12 12:16:46;;;;;;;22.65;15.30;;;9.60;99.90;;;;;;4874399;29;20060;-80
2022/11/12 12:19:32;;;;;;;25.08;16.52;;;9.70;99.90;;;;;;4872745;29;20058;-81
2022/11/12 12:22:03;;;;;;;25.10;16.10;;;9.80;99.90;;;;;;4875296;29;20053;-82
2022/11/12 12:24:38;;;;;;;23.33;15.68;;;9.80;99.90;;;;;;4874199;29;20148;-80
2022/11/12 12:27:12;;;;;;;24.05;15.38;;;9.90;99.90;;;;;;4877536;29;20053;-82
2022/11/12 12:29:46;;;;;;;23.20;14.50;;;9.90;99.90;;;;;;4873545;29;20049;-81
2022/11/12 12:32:15;;;;;;;22.05;14.52;;;9.90;99.90;;;;;;4874531;29;20080;-80
2022/11/12 12:35:01;;;;;;;23.70;14.95;;;9.90;99.90;;;;;;4875959;29;20112;-82
2022/11/12 12:37:38;;;;;;;24.95;15.32;;;10.00;99.90;;;;;;4872384;29;20053;-81
2022/11/12 12:40:19;;;;;;;23.27;15.80;;;10.00;99.90;;;;;;4875873;29;20052;-81
2022/11/12 12:43:06;;;;;;;23.15;14.95;;;10.00;99.90;;;;;;4875303;29;20061;-79
2022/11/12 12:45:40;;;;;;;25.63;15.13;;;9.90;99.90;;;;;;4875003;29;20064;-80
2022/11/12 12:48:18;;;;;;;25.17;15.60;;;9.90;99.90;;;;;;4872334;29;20053;-80
2022/11/12 12:50:47;;;;;;;22.58;14.93;;;9.80;99.90;;;;;;4873081;29;20061;-80
2022/11/12 12:53:13;;;;;;;22.65;15.10;;;9.80;99.90;;;;;;4874829;29;20053;-80
2022/11/12 12:56:05;;;;;;;21.25;14.98;;;9.70;99.90;;;;;;4873730;29;20617;-80
2022/11/12 12:58:48;;;;;;;25.13;14.90;;;9.60;99.90;;;;;;4872895;29;20132;-81
2022/11/12 13:01:21;;;;;;;23.52;15.40;;;9.50;99.90;;;;;;4872933;29;20088;-81
2022/11/12 13:03:54;;;;;;;26.27;16.13;;;9.50;99.90;;;;;;4889592;29;20061;-80
2022/11/12 13:06:23;;;;;;;26.55;15.57;;;9.50;99.90;;;;;;4873229;29;20049;-79
2022/11/12 13:08:52;;;;;;;23.48;15.52;;;9.50;99.90;;;;;;4874263;29;20049;-79
2022/11/12 13:14:35;;;;;;;30.67;15.95;;;9.50;99.90;;;;;;4875052;29;20046;-80
2022/11/12 13:17:09;;;;;;;30.60;19.00;;;9.40;99.90;;;;;;4876197;29;20061;-80
2022/11/12 13:19:57;;;;;;;27.50;16.65;;;9.40;99.90;;;;;;4873929;29;20090;-81
2022/11/12 13:22:24;;;;;;;32.60;16.35;;;9.50;99.90;;;;;;4872461;29;20141;-81
2022/11/12 13:25:02;;;;;;;29.83;15.95;;;9.50;99.90;;;;;;4871927;29;20053;-79
2022/11/12 13:27:44;;;;;;;28.23;16.42;;;9.50;99.90;;;;;;4873719;29;20057;-79
2022/11/12 13:30:15;;;;;;;26.55;15.85;;;9.50;99.90;;;;;;4883014;29;20049;-81
2022/11/12 13:32:50;;;;;;;30.27;17.77;;;9.50;99.90;;;;;;4894019;29;20049;-79
2022/11/12 13:35:37;;;;;;;32.92;17.55;;;9.50;99.90;;;;;;4875097;29;20049;-81